sensor_id;sensor_type;location;lat;lon;timestamp;P1;durP1;ratioP1;P2;durP2;ratioP2
42030;SDS011;27709;52.036;5.906;2023-08-07T00:00:54;4.82;;;0.70;;
42030;SDS011;27709;52.036;5.906;2023-08-07T00:03:20;3.65;;;0.57;;
42030;SDS011;27709;52.036;5.906;2023-08-07T00:05:47;3.58;;;0.60;;
42030;SDS011;27709;52.036;5.906;2023-08-07T00:08:12;3.45;;;0.60;;
42030;SDS011;27709;52.036;5.906;2023-08-07T00:10:38;2.10;;;0.50;;
42030;SDS011;27709;52.036;5.906;2023-08-07T00:13:04;3.55;;;0.73;;
42030;SDS011;27709;52.036;5.906;2023-08-07T00:15:30;3.05;;;0.50;;
42030;SDS011;27709;52.036;5.906;2023-08-07T00:17:55;2.67;;;0.50;;
42030;SDS011;27709;52.036;5.906;2023-08-07T00:20:21;1.90;;;0.60;;
42030;SDS011;27709;52.036;5.906;2023-08-07T00:22:47;3.53;;;0.47;;
42030;SDS011;27709;52.036;5.906;2023-08-07T00:25:13;1.70;;;0.40;;
42030;SDS011;27709;52.036;5.906;2023-08-07T00:27:39;1.55;;;0.47;;
42030;SDS011;27709;52.036;5.906;2023-08-07T00:30:07;1.90;;;0.50;;
42030;SDS011;27709;52.036;5.906;2023-08-07T00:32:33;3.42;;;0.60;;
42030;SDS011;27709;52.036;5.906;2023-08-07T00:34:58;2.08;;;0.50;;
42030;SDS011;27709;52.036;5.906;2023-08-07T00:37:24;3.15;;;0.60;;
42030;SDS011;27709;52.036;5.906;2023-08-07T00:39:52;3.05;;;0.60;;
42030;SDS011;27709;52.036;5.906;2023-08-07T00:42:18;3.97;;;0.73;;
42030;SDS011;27709;52.036;5.906;2023-08-07T00:44:43;3.53;;;0.50;;
42030;SDS011;27709;52.036;5.906;2023-08-07T00:47:09;2.03;;;0.40;;
42030;SDS011;27709;52.036;5.906;2023-08-07T00:49:35;2.90;;;0.70;;
42030;SDS011;27709;52.036;5.906;2023-08-07T00:52:01;2.30;;;0.50;;
42030;SDS011;27709;52.036;5.906;2023-08-07T00:54:27;3.65;;;0.73;;
42030;SDS011;27709;52.036;5.906;2023-08-07T00:56:53;5.32;;;0.77;;
42030;SDS011;27709;52.036;5.906;2023-08-07T00:59:23;3.35;;;0.80;;
42030;SDS011;27709;52.036;5.906;2023-08-07T01:02:01;3.88;;;0.73;;
42030;SDS011;27709;52.036;5.906;2023-08-07T01:04:26;5.05;;;0.80;;
42030;SDS011;27709;52.036;5.906;2023-08-07T01:06:53;6.72;;;1.10;;
42030;SDS011;27709;52.036;5.906;2023-08-07T01:09:19;6.38;;;1.15;;
42030;SDS011;27709;52.036;5.906;2023-08-07T01:14:41;7.82;;;1.00;;
42030;SDS011;27709;52.036;5.906;2023-08-07T01:17:32;4.60;;;0.90;;
42030;SDS011;27709;52.036;5.906;2023-08-07T01:19:59;6.10;;;0.98;;
42030;SDS011;27709;52.036;5.906;2023-08-07T01:22:27;7.00;;;1.30;;
42030;SDS011;27709;52.036;5.906;2023-08-07T01:24:53;6.85;;;1.02;;
42030;SDS011;27709;52.036;5.906;2023-08-07T01:29:51;6.85;;;0.98;;
42030;SDS011;27709;52.036;5.906;2023-08-07T01:32:29;6.95;;;1.33;;
42030;SDS011;27709;52.036;5.906;2023-08-07T01:35:06;5.32;;;1.08;;
42030;SDS011;27709;52.036;5.906;2023-08-07T01:40:05;5.47;;;1.08;;
42030;SDS011;27709;52.036;5.906;2023-08-07T01:42:34;5.85;;;1.10;;
42030;SDS011;27709;52.036;5.906;2023-08-07T01:45:01;5.05;;;0.98;;
42030;SDS011;27709;52.036;5.906;2023-08-07T01:47:28;7.43;;;1.50;;
42030;SDS011;27709;52.036;5.906;2023-08-07T01:49:55;8.35;;;1.38;;
42030;SDS011;27709;52.036;5.906;2023-08-07T01:52:21;7.15;;;1.10;;
42030;SDS011;27709;52.036;5.906;2023-08-07T01:54:50;4.95;;;1.30;;
42030;SDS011;27709;52.036;5.906;2023-08-07T01:57:16;5.22;;;1.20;;
42030;SDS011;27709;52.036;5.906;2023-08-07T01:59:54;7.22;;;1.33;;
42030;SDS011;27709;52.036;5.906;2023-08-07T02:02:20;3.97;;;1.23;;
42030;SDS011;27709;52.036;5.906;2023-08-07T02:04:46;8.25;;;1.48;;
42030;SDS011;27709;52.036;5.906;2023-08-07T02:07:16;8.73;;;1.38;;
42030;SDS011;27709;52.036;5.906;2023-08-07T02:09:45;8.85;;;1.20;;
42030;SDS011;27709;52.036;5.906;2023-08-07T02:14:47;9.10;;;2.00;;
42030;SDS011;27709;52.036;5.906;2023-08-07T02:17:12;7.03;;;1.80;;
42030;SDS011;27709;52.036;5.906;2023-08-07T02:19:38;9.65;;;1.90;;
42030;SDS011;27709;52.036;5.906;2023-08-07T02:22:04;7.13;;;1.40;;
42030;SDS011;27709;52.036;5.906;2023-08-07T02:24:30;7.97;;;2.05;;
42030;SDS011;27709;52.036;5.906;2023-08-07T02:26:57;8.88;;;1.80;;
42030;SDS011;27709;52.036;5.906;2023-08-07T02:29:24;8.63;;;1.88;;
42030;SDS011;27709;52.036;5.906;2023-08-07T02:31:49;9.20;;;1.63;;
42030;SDS011;27709;52.036;5.906;2023-08-07T02:34:15;6.25;;;1.63;;
42030;SDS011;27709;52.036;5.906;2023-08-07T02:36:44;8.60;;;1.67;;
42030;SDS011;27709;52.036;5.906;2023-08-07T02:39:10;7.53;;;1.60;;
42030;SDS011;27709;52.036;5.906;2023-08-07T02:41:35;8.13;;;1.75;;
42030;SDS011;27709;52.036;5.906;2023-08-07T02:44:04;6.78;;;1.48;;
42030;SDS011;27709;52.036;5.906;2023-08-07T02:46:30;6.75;;;1.63;;
42030;SDS011;27709;52.036;5.906;2023-08-07T02:48:56;6.15;;;1.75;;
42030;SDS011;27709;52.036;5.906;2023-08-07T02:51:22;9.45;;;1.75;;
42030;SDS011;27709;52.036;5.906;2023-08-07T02:53:47;9.57;;;1.98;;
42030;SDS011;27709;52.036;5.906;2023-08-07T02:56:13;6.78;;;1.77;;
42030;SDS011;27709;52.036;5.906;2023-08-07T02:58:38;5.80;;;1.52;;
42030;SDS011;27709;52.036;5.906;2023-08-07T03:01:04;7.65;;;1.80;;
42030;SDS011;27709;52.036;5.906;2023-08-07T03:03:32;6.40;;;1.58;;
42030;SDS011;27709;52.036;5.906;2023-08-07T03:06:00;7.90;;;2.22;;
42030;SDS011;27709;52.036;5.906;2023-08-07T03:08:26;8.55;;;1.73;;
42030;SDS011;27709;52.036;5.906;2023-08-07T03:10:55;5.43;;;1.75;;
42030;SDS011;27709;52.036;5.906;2023-08-07T03:13:23;11.23;;;2.08;;
42030;SDS011;27709;52.036;5.906;2023-08-07T03:15:49;7.55;;;2.28;;
42030;SDS011;27709;52.036;5.906;2023-08-07T03:18:16;7.05;;;1.83;;
42030;SDS011;27709;52.036;5.906;2023-08-07T03:20:41;6.50;;;2.00;;
42030;SDS011;27709;52.036;5.906;2023-08-07T03:23:08;7.45;;;1.63;;
42030;SDS011;27709;52.036;5.906;2023-08-07T03:25:34;10.85;;;2.30;;
42030;SDS011;27709;52.036;5.906;2023-08-07T03:28:00;8.35;;;2.10;;
42030;SDS011;27709;52.036;5.906;2023-08-07T03:30:25;7.53;;;1.92;;
42030;SDS011;27709;52.036;5.906;2023-08-07T03:32:51;6.38;;;1.92;;
42030;SDS011;27709;52.036;5.906;2023-08-07T03:35:17;6.03;;;2.00;;
42030;SDS011;27709;52.036;5.906;2023-08-07T03:37:42;5.40;;;1.60;;
42030;SDS011;27709;52.036;5.906;2023-08-07T03:40:08;4.75;;;1.60;;
42030;SDS011;27709;52.036;5.906;2023-08-07T03:42:34;7.95;;;1.80;;
42030;SDS011;27709;52.036;5.906;2023-08-07T03:44:59;6.93;;;1.70;;
42030;SDS011;27709;52.036;5.906;2023-08-07T03:47:25;6.70;;;1.90;;
42030;SDS011;27709;52.036;5.906;2023-08-07T03:49:50;7.78;;;1.70;;
42030;SDS011;27709;52.036;5.906;2023-08-07T03:52:16;7.82;;;1.80;;
42030;SDS011;27709;52.036;5.906;2023-08-07T03:54:43;8.48;;;2.05;;
42030;SDS011;27709;52.036;5.906;2023-08-07T03:57:08;5.63;;;1.88;;
42030;SDS011;27709;52.036;5.906;2023-08-07T03:59:35;5.40;;;1.90;;
42030;SDS011;27709;52.036;5.906;2023-08-07T04:02:01;5.15;;;1.90;;
42030;SDS011;27709;52.036;5.906;2023-08-07T04:04:26;8.93;;;1.92;;
42030;SDS011;27709;52.036;5.906;2023-08-07T04:06:52;10.57;;;2.00;;
42030;SDS011;27709;52.036;5.906;2023-08-07T04:09:17;6.35;;;1.98;;
42030;SDS011;27709;52.036;5.906;2023-08-07T04:11:43;4.45;;;1.50;;
42030;SDS011;27709;52.036;5.906;2023-08-07T04:14:08;5.95;;;1.50;;
42030;SDS011;27709;52.036;5.906;2023-08-07T04:16:34;6.75;;;1.63;;
42030;SDS011;27709;52.036;5.906;2023-08-07T04:19:00;5.65;;;1.48;;
42030;SDS011;27709;52.036;5.906;2023-08-07T04:21:25;5.55;;;1.50;;
42030;SDS011;27709;52.036;5.906;2023-08-07T04:23:51;6.00;;;1.55;;
42030;SDS011;27709;52.036;5.906;2023-08-07T04:26:16;5.53;;;1.42;;
42030;SDS011;27709;52.036;5.906;2023-08-07T04:28:43;4.93;;;1.40;;
42030;SDS011;27709;52.036;5.906;2023-08-07T04:31:08;7.05;;;1.40;;
42030;SDS011;27709;52.036;5.906;2023-08-07T04:33:34;7.13;;;1.75;;
42030;SDS011;27709;52.036;5.906;2023-08-07T04:36:01;5.75;;;1.15;;
42030;SDS011;27709;52.036;5.906;2023-08-07T04:38:26;5.55;;;1.50;;
42030;SDS011;27709;52.036;5.906;2023-08-07T04:40:52;4.65;;;1.30;;
42030;SDS011;27709;52.036;5.906;2023-08-07T04:43:18;4.53;;;1.10;;
42030;SDS011;27709;52.036;5.906;2023-08-07T04:45:47;5.15;;;1.50;;
42030;SDS011;27709;52.036;5.906;2023-08-07T04:48:13;3.72;;;1.10;;
42030;SDS011;27709;52.036;5.906;2023-08-07T04:50:40;4.55;;;1.15;;
42030;SDS011;27709;52.036;5.906;2023-08-07T04:53:06;7.07;;;1.60;;
42030;SDS011;27709;52.036;5.906;2023-08-07T04:55:31;5.88;;;1.60;;
42030;SDS011;27709;52.036;5.906;2023-08-07T04:57:57;5.55;;;1.40;;
42030;SDS011;27709;52.036;5.906;2023-08-07T05:00:23;4.47;;;1.35;;
42030;SDS011;27709;52.036;5.906;2023-08-07T05:02:49;5.97;;;1.52;;
42030;SDS011;27709;52.036;5.906;2023-08-07T05:05:15;7.40;;;1.70;;
42030;SDS011;27709;52.036;5.906;2023-08-07T05:07:41;6.97;;;1.70;;
42030;SDS011;27709;52.036;5.906;2023-08-07T05:10:08;7.50;;;1.60;;
42030;SDS011;27709;52.036;5.906;2023-08-07T05:12:34;6.40;;;1.75;;
42030;SDS011;27709;52.036;5.906;2023-08-07T05:15:01;7.68;;;1.92;;
42030;SDS011;27709;52.036;5.906;2023-08-07T05:17:26;9.90;;;2.30;;
42030;SDS011;27709;52.036;5.906;2023-08-07T05:19:52;5.50;;;1.70;;
42030;SDS011;27709;52.036;5.906;2023-08-07T05:22:17;5.25;;;1.52;;
42030;SDS011;27709;52.036;5.906;2023-08-07T05:24:43;9.00;;;2.05;;
42030;SDS011;27709;52.036;5.906;2023-08-07T05:27:10;8.75;;;1.95;;
42030;SDS011;27709;52.036;5.906;2023-08-07T05:29:36;6.75;;;2.03;;
42030;SDS011;27709;52.036;5.906;2023-08-07T05:32:08;9.15;;;2.30;;
42030;SDS011;27709;52.036;5.906;2023-08-07T05:34:37;6.93;;;1.77;;
42030;SDS011;27709;52.036;5.906;2023-08-07T05:37:03;7.95;;;1.85;;
42030;SDS011;27709;52.036;5.906;2023-08-07T05:39:29;7.22;;;1.90;;
42030;SDS011;27709;52.036;5.906;2023-08-07T05:41:54;9.43;;;2.30;;
42030;SDS011;27709;52.036;5.906;2023-08-07T05:44:22;6.20;;;2.17;;
42030;SDS011;27709;52.036;5.906;2023-08-07T05:46:51;8.95;;;2.40;;
42030;SDS011;27709;52.036;5.906;2023-08-07T05:49:16;7.72;;;2.25;;
42030;SDS011;27709;52.036;5.906;2023-08-07T05:51:42;5.65;;;1.92;;
42030;SDS011;27709;52.036;5.906;2023-08-07T05:54:08;8.68;;;2.25;;
42030;SDS011;27709;52.036;5.906;2023-08-07T05:56:34;8.93;;;1.95;;
42030;SDS011;27709;52.036;5.906;2023-08-07T05:58:59;6.97;;;2.10;;
42030;SDS011;27709;52.036;5.906;2023-08-07T06:01:25;10.18;;;2.25;;
42030;SDS011;27709;52.036;5.906;2023-08-07T06:03:56;8.82;;;2.30;;
42030;SDS011;27709;52.036;5.906;2023-08-07T06:06:26;8.32;;;2.38;;
42030;SDS011;27709;52.036;5.906;2023-08-07T06:08:53;9.00;;;2.53;;
42030;SDS011;27709;52.036;5.906;2023-08-07T06:11:19;9.40;;;2.03;;
42030;SDS011;27709;52.036;5.906;2023-08-07T06:13:45;6.90;;;2.28;;
42030;SDS011;27709;52.036;5.906;2023-08-07T06:16:10;6.75;;;1.73;;
42030;SDS011;27709;52.036;5.906;2023-08-07T06:18:36;10.23;;;2.83;;
42030;SDS011;27709;52.036;5.906;2023-08-07T06:21:02;8.40;;;1.88;;
42030;SDS011;27709;52.036;5.906;2023-08-07T06:23:31;7.22;;;1.90;;
42030;SDS011;27709;52.036;5.906;2023-08-07T06:25:57;9.93;;;2.10;;
42030;SDS011;27709;52.036;5.906;2023-08-07T06:28:23;6.20;;;1.70;;
42030;SDS011;27709;52.036;5.906;2023-08-07T06:30:48;6.95;;;2.08;;
42030;SDS011;27709;52.036;5.906;2023-08-07T06:33:14;10.13;;;2.17;;
42030;SDS011;27709;52.036;5.906;2023-08-07T06:35:39;7.50;;;2.10;;
42030;SDS011;27709;52.036;5.906;2023-08-07T06:38:07;6.22;;;1.95;;
42030;SDS011;27709;52.036;5.906;2023-08-07T06:40:34;6.05;;;2.25;;
42030;SDS011;27709;52.036;5.906;2023-08-07T06:43:00;10.27;;;2.50;;
42030;SDS011;27709;52.036;5.906;2023-08-07T06:45:25;6.20;;;2.03;;
42030;SDS011;27709;52.036;5.906;2023-08-07T06:47:51;8.70;;;2.50;;
42030;SDS011;27709;52.036;5.906;2023-08-07T06:50:16;9.10;;;2.13;;
42030;SDS011;27709;52.036;5.906;2023-08-07T06:52:42;10.13;;;2.88;;
42030;SDS011;27709;52.036;5.906;2023-08-07T06:55:07;7.88;;;2.17;;
42030;SDS011;27709;52.036;5.906;2023-08-07T06:57:34;9.48;;;2.58;;
42030;SDS011;27709;52.036;5.906;2023-08-07T06:59:59;11.23;;;2.28;;
42030;SDS011;27709;52.036;5.906;2023-08-07T07:02:25;7.75;;;2.17;;
42030;SDS011;27709;52.036;5.906;2023-08-07T07:04:51;8.63;;;2.05;;
42030;SDS011;27709;52.036;5.906;2023-08-07T07:07:16;6.70;;;2.20;;
42030;SDS011;27709;52.036;5.906;2023-08-07T07:09:42;7.88;;;2.45;;
42030;SDS011;27709;52.036;5.906;2023-08-07T07:12:07;9.07;;;1.67;;
42030;SDS011;27709;52.036;5.906;2023-08-07T07:14:33;10.75;;;2.22;;
42030;SDS011;27709;52.036;5.906;2023-08-07T07:16:59;9.63;;;2.40;;
42030;SDS011;27709;52.036;5.906;2023-08-07T07:19:25;6.85;;;2.15;;
42030;SDS011;27709;52.036;5.906;2023-08-07T07:21:51;8.90;;;2.38;;
42030;SDS011;27709;52.036;5.906;2023-08-07T07:24:16;8.07;;;2.15;;
42030;SDS011;27709;52.036;5.906;2023-08-07T07:26:42;8.05;;;1.88;;
42030;SDS011;27709;52.036;5.906;2023-08-07T07:29:08;9.60;;;2.53;;
42030;SDS011;27709;52.036;5.906;2023-08-07T07:31:33;7.43;;;1.77;;
42030;SDS011;27709;52.036;5.906;2023-08-07T07:33:59;7.88;;;1.90;;
42030;SDS011;27709;52.036;5.906;2023-08-07T07:36:25;8.30;;;1.95;;
42030;SDS011;27709;52.036;5.906;2023-08-07T07:38:52;10.38;;;1.88;;
42030;SDS011;27709;52.036;5.906;2023-08-07T07:41:18;9.05;;;2.15;;
42030;SDS011;27709;52.036;5.906;2023-08-07T07:43:43;8.02;;;1.85;;
42030;SDS011;27709;52.036;5.906;2023-08-07T07:46:09;4.00;;;1.48;;
42030;SDS011;27709;52.036;5.906;2023-08-07T07:48:36;7.47;;;1.60;;
42030;SDS011;27709;52.036;5.906;2023-08-07T07:51:04;9.07;;;1.85;;
42030;SDS011;27709;52.036;5.906;2023-08-07T07:53:46;6.78;;;2.00;;
42030;SDS011;27709;52.036;5.906;2023-08-07T07:56:11;7.85;;;1.90;;
42030;SDS011;27709;52.036;5.906;2023-08-07T07:58:37;6.70;;;1.90;;
42030;SDS011;27709;52.036;5.906;2023-08-07T08:01:02;8.10;;;2.10;;
42030;SDS011;27709;52.036;5.906;2023-08-07T08:03:33;6.93;;;2.28;;
42030;SDS011;27709;52.036;5.906;2023-08-07T08:06:21;7.18;;;1.88;;
42030;SDS011;27709;52.036;5.906;2023-08-07T08:08:47;9.00;;;2.47;;
42030;SDS011;27709;52.036;5.906;2023-08-07T08:11:13;10.05;;;2.40;;
42030;SDS011;27709;52.036;5.906;2023-08-07T08:13:38;8.48;;;2.17;;
42030;SDS011;27709;52.036;5.906;2023-08-07T08:16:06;8.77;;;2.42;;
42030;SDS011;27709;52.036;5.906;2023-08-07T08:18:31;10.00;;;2.35;;
42030;SDS011;27709;52.036;5.906;2023-08-07T08:20:57;11.40;;;2.72;;
42030;SDS011;27709;52.036;5.906;2023-08-07T08:23:22;8.32;;;2.50;;
42030;SDS011;27709;52.036;5.906;2023-08-07T08:25:48;6.78;;;1.95;;
42030;SDS011;27709;52.036;5.906;2023-08-07T08:28:14;8.73;;;2.13;;
42030;SDS011;27709;52.036;5.906;2023-08-07T08:30:41;10.77;;;2.10;;
42030;SDS011;27709;52.036;5.906;2023-08-07T08:33:07;5.95;;;1.88;;
42030;SDS011;27709;52.036;5.906;2023-08-07T08:35:34;7.53;;;1.75;;
42030;SDS011;27709;52.036;5.906;2023-08-07T08:38:00;7.28;;;2.00;;
42030;SDS011;27709;52.036;5.906;2023-08-07T08:40:29;7.47;;;2.10;;
42030;SDS011;27709;52.036;5.906;2023-08-07T08:43:00;7.70;;;2.17;;
42030;SDS011;27709;52.036;5.906;2023-08-07T08:45:29;8.35;;;2.10;;
42030;SDS011;27709;52.036;5.906;2023-08-07T08:48:00;5.88;;;1.58;;
42030;SDS011;27709;52.036;5.906;2023-08-07T08:50:27;6.70;;;1.60;;
42030;SDS011;27709;52.036;5.906;2023-08-07T08:52:56;6.50;;;1.58;;
42030;SDS011;27709;52.036;5.906;2023-08-07T08:55:22;7.63;;;2.38;;
42030;SDS011;27709;52.036;5.906;2023-08-07T08:57:48;8.50;;;1.77;;
42030;SDS011;27709;52.036;5.906;2023-08-07T09:00:15;7.18;;;1.83;;
42030;SDS011;27709;52.036;5.906;2023-08-07T09:02:45;4.95;;;1.80;;
42030;SDS011;27709;52.036;5.906;2023-08-07T09:05:15;5.38;;;1.63;;
42030;SDS011;27709;52.036;5.906;2023-08-07T09:07:42;8.02;;;2.15;;
42030;SDS011;27709;52.036;5.906;2023-08-07T09:10:12;6.78;;;1.70;;
42030;SDS011;27709;52.036;5.906;2023-08-07T09:12:45;9.60;;;2.22;;
42030;SDS011;27709;52.036;5.906;2023-08-07T09:15:32;7.97;;;2.10;;
42030;SDS011;27709;52.036;5.906;2023-08-07T09:17:58;6.80;;;1.80;;
42030;SDS011;27709;52.036;5.906;2023-08-07T09:20:31;7.88;;;2.00;;
42030;SDS011;27709;52.036;5.906;2023-08-07T09:23:04;6.20;;;1.90;;
42030;SDS011;27709;52.036;5.906;2023-08-07T09:25:30;6.35;;;1.70;;
42030;SDS011;27709;52.036;5.906;2023-08-07T09:28:05;6.57;;;1.48;;
42030;SDS011;27709;52.036;5.906;2023-08-07T09:30:32;6.45;;;1.60;;
42030;SDS011;27709;52.036;5.906;2023-08-07T09:33:03;7.57;;;1.80;;
42030;SDS011;27709;52.036;5.906;2023-08-07T09:35:31;7.38;;;1.50;;
42030;SDS011;27709;52.036;5.906;2023-08-07T09:38:02;7.88;;;2.00;;
42030;SDS011;27709;52.036;5.906;2023-08-07T09:40:36;8.20;;;1.60;;
42030;SDS011;27709;52.036;5.906;2023-08-07T09:43:01;4.55;;;1.70;;
42030;SDS011;27709;52.036;5.906;2023-08-07T09:45:28;6.78;;;1.67;;
42030;SDS011;27709;52.036;5.906;2023-08-07T09:48:02;5.35;;;1.40;;
42030;SDS011;27709;52.036;5.906;2023-08-07T09:50:31;8.80;;;1.50;;
42030;SDS011;27709;52.036;5.906;2023-08-07T09:52:57;7.88;;;1.77;;
42030;SDS011;27709;52.036;5.906;2023-08-07T09:55:24;5.72;;;1.70;;
42030;SDS011;27709;52.036;5.906;2023-08-07T09:57:49;6.72;;;1.50;;
42030;SDS011;27709;52.036;5.906;2023-08-07T10:00:16;7.75;;;1.70;;
42030;SDS011;27709;52.036;5.906;2023-08-07T10:02:47;7.60;;;1.50;;
42030;SDS011;27709;52.036;5.906;2023-08-07T10:05:16;6.05;;;1.58;;
42030;SDS011;27709;52.036;5.906;2023-08-07T10:07:42;5.78;;;1.60;;
42030;SDS011;27709;52.036;5.906;2023-08-07T10:10:08;4.68;;;1.50;;
42030;SDS011;27709;52.036;5.906;2023-08-07T10:12:35;10.45;;;1.83;;
42030;SDS011;27709;52.036;5.906;2023-08-07T10:15:02;5.32;;;1.42;;
42030;SDS011;27709;52.036;5.906;2023-08-07T10:17:29;4.97;;;1.45;;
42030;SDS011;27709;52.036;5.906;2023-08-07T10:19:59;4.47;;;1.30;;
42030;SDS011;27709;52.036;5.906;2023-08-07T10:22:29;4.28;;;1.30;;
42030;SDS011;27709;52.036;5.906;2023-08-07T10:24:59;5.32;;;1.30;;
42030;SDS011;27709;52.036;5.906;2023-08-07T10:27:27;6.30;;;1.20;;
42030;SDS011;27709;52.036;5.906;2023-08-07T10:29:56;3.97;;;1.02;;
42030;SDS011;27709;52.036;5.906;2023-08-07T10:32:32;6.00;;;1.20;;
42030;SDS011;27709;52.036;5.906;2023-08-07T10:35:04;5.53;;;1.50;;
42030;SDS011;27709;52.036;5.906;2023-08-07T10:37:43;6.80;;;1.40;;
42030;SDS011;27709;52.036;5.906;2023-08-07T10:40:10;5.18;;;1.30;;
42030;SDS011;27709;52.036;5.906;2023-08-07T10:42:55;6.18;;;1.20;;
42030;SDS011;27709;52.036;5.906;2023-08-07T10:45:42;6.38;;;1.40;;
42030;SDS011;27709;52.036;5.906;2023-08-07T10:48:11;4.50;;;1.27;;
42030;SDS011;27709;52.036;5.906;2023-08-07T10:53:36;6.80;;;1.30;;
42030;SDS011;27709;52.036;5.906;2023-08-07T10:56:07;4.32;;;1.45;;
42030;SDS011;27709;52.036;5.906;2023-08-07T10:58:37;4.50;;;1.42;;
42030;SDS011;27709;52.036;5.906;2023-08-07T11:01:19;5.15;;;1.50;;
42030;SDS011;27709;52.036;5.906;2023-08-07T11:03:51;5.55;;;1.40;;
42030;SDS011;27709;52.036;5.906;2023-08-07T11:06:27;6.47;;;1.40;;
42030;SDS011;27709;52.036;5.906;2023-08-07T11:08:58;4.43;;;1.20;;
42030;SDS011;27709;52.036;5.906;2023-08-07T11:11:24;4.45;;;1.30;;
42030;SDS011;27709;52.036;5.906;2023-08-07T11:13:51;4.63;;;1.10;;
42030;SDS011;27709;52.036;5.906;2023-08-07T11:16:17;3.42;;;1.25;;
42030;SDS011;27709;52.036;5.906;2023-08-07T11:18:46;5.95;;;1.27;;
42030;SDS011;27709;52.036;5.906;2023-08-07T11:21:12;4.28;;;1.35;;
42030;SDS011;27709;52.036;5.906;2023-08-07T11:23:38;4.53;;;1.15;;
42030;SDS011;27709;52.036;5.906;2023-08-07T11:26:05;5.68;;;1.13;;
42030;SDS011;27709;52.036;5.906;2023-08-07T11:28:30;4.20;;;1.20;;
42030;SDS011;27709;52.036;5.906;2023-08-07T11:30:56;4.85;;;1.10;;
42030;SDS011;27709;52.036;5.906;2023-08-07T11:33:25;6.57;;;1.27;;
42030;SDS011;27709;52.036;5.906;2023-08-07T11:35:52;4.10;;;1.35;;
42030;SDS011;27709;52.036;5.906;2023-08-07T11:40:57;6.57;;;1.50;;
42030;SDS011;27709;52.036;5.906;2023-08-07T11:43:26;3.72;;;1.35;;
42030;SDS011;27709;52.036;5.906;2023-08-07T11:45:53;5.57;;;1.33;;
42030;SDS011;27709;52.036;5.906;2023-08-07T11:48:19;8.50;;;1.35;;
42030;SDS011;27709;52.036;5.906;2023-08-07T11:50:45;5.70;;;1.50;;
42030;SDS011;27709;52.036;5.906;2023-08-07T11:53:10;5.40;;;1.73;;
42030;SDS011;27709;52.036;5.906;2023-08-07T11:55:36;4.20;;;1.50;;
42030;SDS011;27709;52.036;5.906;2023-08-07T11:58:06;4.43;;;1.25;;
42030;SDS011;27709;52.036;5.906;2023-08-07T12:00:34;5.13;;;1.20;;
42030;SDS011;27709;52.036;5.906;2023-08-07T12:03:00;7.05;;;1.38;;
42030;SDS011;27709;52.036;5.906;2023-08-07T12:05:26;6.05;;;1.50;;
42030;SDS011;27709;52.036;5.906;2023-08-07T12:07:52;6.07;;;1.70;;
42030;SDS011;27709;52.036;5.906;2023-08-07T12:10:18;4.97;;;1.30;;
42030;SDS011;27709;52.036;5.906;2023-08-07T12:12:43;6.80;;;1.15;;
42030;SDS011;27709;52.036;5.906;2023-08-07T12:15:09;6.53;;;1.70;;
42030;SDS011;27709;52.036;5.906;2023-08-07T12:17:36;4.70;;;1.38;;
42030;SDS011;27709;52.036;5.906;2023-08-07T12:20:04;4.88;;;1.60;;
42030;SDS011;27709;52.036;5.906;2023-08-07T12:22:37;5.25;;;1.50;;
42030;SDS011;27709;52.036;5.906;2023-08-07T12:25:13;5.15;;;1.55;;
42030;SDS011;27709;52.036;5.906;2023-08-07T12:27:41;6.63;;;1.50;;
42030;SDS011;27709;52.036;5.906;2023-08-07T12:30:12;4.43;;;1.50;;
42030;SDS011;27709;52.036;5.906;2023-08-07T12:32:38;4.65;;;1.45;;
42030;SDS011;27709;52.036;5.906;2023-08-07T12:35:04;5.70;;;1.60;;
42030;SDS011;27709;52.036;5.906;2023-08-07T12:37:36;5.63;;;1.67;;
42030;SDS011;27709;52.036;5.906;2023-08-07T12:40:02;5.15;;;1.42;;
42030;SDS011;27709;52.036;5.906;2023-08-07T12:42:30;4.85;;;1.50;;
42030;SDS011;27709;52.036;5.906;2023-08-07T12:44:56;6.18;;;1.30;;
42030;SDS011;27709;52.036;5.906;2023-08-07T12:47:23;3.97;;;1.40;;
42030;SDS011;27709;52.036;5.906;2023-08-07T12:49:49;6.85;;;1.27;;
42030;SDS011;27709;52.036;5.906;2023-08-07T12:52:15;5.15;;;1.27;;
42030;SDS011;27709;52.036;5.906;2023-08-07T12:54:40;4.68;;;1.20;;
42030;SDS011;27709;52.036;5.906;2023-08-07T12:57:09;5.40;;;1.20;;
42030;SDS011;27709;52.036;5.906;2023-08-07T12:59:35;4.53;;;1.15;;
42030;SDS011;27709;52.036;5.906;2023-08-07T13:02:01;4.05;;;1.20;;
42030;SDS011;27709;52.036;5.906;2023-08-07T13:04:27;4.05;;;1.10;;
42030;SDS011;27709;52.036;5.906;2023-08-07T13:06:52;5.63;;;1.15;;
42030;SDS011;27709;52.036;5.906;2023-08-07T13:09:18;5.47;;;1.52;;
42030;SDS011;27709;52.036;5.906;2023-08-07T13:11:46;4.30;;;1.30;;
42030;SDS011;27709;52.036;5.906;2023-08-07T13:14:12;4.07;;;1.27;;
42030;SDS011;27709;52.036;5.906;2023-08-07T13:16:38;5.45;;;1.20;;
42030;SDS011;27709;52.036;5.906;2023-08-07T13:19:03;3.95;;;0.98;;
42030;SDS011;27709;52.036;5.906;2023-08-07T13:21:31;3.03;;;1.17;;
42030;SDS011;27709;52.036;5.906;2023-08-07T13:23:56;4.00;;;1.13;;
42030;SDS011;27709;52.036;5.906;2023-08-07T13:26:28;4.30;;;1.08;;
42030;SDS011;27709;52.036;5.906;2023-08-07T13:28:59;3.90;;;1.20;;
42030;SDS011;27709;52.036;5.906;2023-08-07T13:31:25;6.97;;;1.20;;
42030;SDS011;27709;52.036;5.906;2023-08-07T13:34:11;4.35;;;0.90;;
42030;SDS011;27709;52.036;5.906;2023-08-07T13:36:37;3.88;;;1.10;;
42030;SDS011;27709;52.036;5.906;2023-08-07T13:39:04;5.93;;;1.02;;
42030;SDS011;27709;52.036;5.906;2023-08-07T13:41:31;2.78;;;0.90;;
42030;SDS011;27709;52.036;5.906;2023-08-07T13:43:57;2.63;;;0.90;;
42030;SDS011;27709;52.036;5.906;2023-08-07T13:46:23;3.42;;;1.05;;
42030;SDS011;27709;52.036;5.906;2023-08-07T13:48:50;3.03;;;0.80;;
42030;SDS011;27709;52.036;5.906;2023-08-07T13:51:16;4.22;;;0.88;;
42030;SDS011;27709;52.036;5.906;2023-08-07T13:53:45;2.75;;;0.80;;
42030;SDS011;27709;52.036;5.906;2023-08-07T13:56:13;2.42;;;0.82;;
42030;SDS011;27709;52.036;5.906;2023-08-07T13:58:41;4.20;;;0.80;;
42030;SDS011;27709;52.036;5.906;2023-08-07T14:01:07;4.13;;;1.05;;
42030;SDS011;27709;52.036;5.906;2023-08-07T14:03:33;2.95;;;0.80;;
42030;SDS011;27709;52.036;5.906;2023-08-07T14:05:59;3.65;;;1.00;;
42030;SDS011;27709;52.036;5.906;2023-08-07T14:08:25;2.55;;;0.90;;
42030;SDS011;27709;52.036;5.906;2023-08-07T14:10:51;4.95;;;1.00;;
42030;SDS011;27709;52.036;5.906;2023-08-07T14:13:16;2.97;;;0.90;;
42030;SDS011;27709;52.036;5.906;2023-08-07T14:15:42;2.55;;;0.90;;
42030;SDS011;27709;52.036;5.906;2023-08-07T14:18:08;2.70;;;1.00;;
42030;SDS011;27709;52.036;5.906;2023-08-07T14:20:38;3.58;;;1.17;;
42030;SDS011;27709;52.036;5.906;2023-08-07T14:23:03;2.65;;;0.70;;
42030;SDS011;27709;52.036;5.906;2023-08-07T14:25:29;2.83;;;0.70;;
42030;SDS011;27709;52.036;5.906;2023-08-07T14:27:56;2.63;;;0.80;;
42030;SDS011;27709;52.036;5.906;2023-08-07T14:30:25;2.60;;;0.70;;
42030;SDS011;27709;52.036;5.906;2023-08-07T14:32:53;2.22;;;0.60;;
42030;SDS011;27709;52.036;5.906;2023-08-07T14:35:18;3.13;;;0.90;;
42030;SDS011;27709;52.036;5.906;2023-08-07T14:37:44;2.08;;;0.82;;
42030;SDS011;27709;52.036;5.906;2023-08-07T14:40:12;3.25;;;0.60;;
42030;SDS011;27709;52.036;5.906;2023-08-07T14:42:38;2.67;;;0.75;;
42030;SDS011;27709;52.036;5.906;2023-08-07T14:45:04;2.30;;;0.70;;
42030;SDS011;27709;52.036;5.906;2023-08-07T14:47:30;3.40;;;0.70;;
42030;SDS011;27709;52.036;5.906;2023-08-07T14:49:56;3.88;;;0.82;;
42030;SDS011;27709;52.036;5.906;2023-08-07T14:52:21;3.65;;;0.70;;
42030;SDS011;27709;52.036;5.906;2023-08-07T14:54:50;1.95;;;0.68;;
42030;SDS011;27709;52.036;5.906;2023-08-07T15:00:00;2.42;;;0.70;;
42030;SDS011;27709;52.036;5.906;2023-08-07T15:02:28;3.80;;;0.80;;
42030;SDS011;27709;52.036;5.906;2023-08-07T15:04:58;2.55;;;0.70;;
42030;SDS011;27709;52.036;5.906;2023-08-07T15:07:23;2.22;;;0.60;;